Time;durP1;ratioP1;P1;durP2;ratioP2;P2;SDS_P1;SDS_P2;PMS_P1;PMS_P2;Temp;Humidity;BMP_temperature;BMP_pressure;BME280_temperature;BME280_humidity;BME280_pressure;Samples;Min_cycle;Max_cycle;Signal;HPM_P1;HPM_P2
2023/05/25 00:00:28;;;;;;;8.83;3.33;;;15.30;52.90;;;;;;5051371;28;20186;-67
2023/05/25 00:02:56;;;;;;;12.00;3.90;;;15.30;51.90;;;;;;5049612;28;20195;-68
2023/05/25 00:05:26;;;;;;;6.20;3.07;;;15.30;52.10;;;;;;5043257;28;20181;-68
2023/05/25 00:07:55;;;;;;;13.70;3.63;;;15.30;51.80;;;;;;5048060;28;20177;-67
2023/05/25 00:10:22;;;;;;;12.93;3.53;;;15.50;51.40;;;;;;5049152;28;20643;-69
2023/05/25 00:12:49;;;;;;;11.23;3.50;;;15.60;50.60;;;;;;5046124;28;20190;-68
2023/05/25 00:15:17;;;;;;;12.10;3.93;;;15.70;50.10;;;;;;5048332;28;20678;-68
2023/05/25 00:17:47;;;;;;;6.93;3.33;;;15.80;50.70;;;;;;5051029;28;20169;-69
2023/05/25 00:20:15;;;;;;;9.57;3.60;;;16.00;49.40;;;;;;5048432;28;20239;-70
2023/05/25 00:22:46;;;;;;;7.70;3.50;;;16.20;49.50;;;;;;5049361;28;20185;-70
2023/05/25 00:25:13;;;;;;;9.30;2.87;;;16.30;48.90;;;;;;5048199;28;20208;-68
2023/05/25 00:27:41;;;;;;;12.40;3.90;;;16.50;48.10;;;;;;5050735;28;20623;-70
2023/05/25 00:30:08;;;;;;;12.53;3.83;;;16.70;47.60;;;;;;5050090;28;20220;-69
2023/05/25 00:32:36;;;;;;;15.40;4.00;;;16.80;46.90;;;;;;5048824;28;20202;-69
2023/05/25 00:35:03;;;;;;;10.67;3.00;;;16.80;47.30;;;;;;5049600;28;20563;-69
2023/05/25 00:37:30;;;;;;;15.33;4.53;;;17.00;47.00;;;;;;5050989;28;20570;-70
2023/05/25 00:39:58;;;;;;;9.33;3.13;;;17.10;46.80;;;;;;5045932;28;20205;-70
2023/05/25 00:42:26;;;;;;;8.33;3.27;;;17.30;45.50;;;;;;5032401;28;20600;-71
2023/05/25 00:44:54;;;;;;;12.07;3.50;;;17.30;46.50;;;;;;5049565;28;20180;-70
2023/05/25 00:47:22;;;;;;;11.07;4.00;;;17.30;46.80;;;;;;5050092;28;20590;-70
2023/05/25 00:49:50;;;;;;;11.33;3.93;;;17.30;46.20;;;;;;5042240;28;20188;-70
2023/05/25 00:52:17;;;;;;;10.47;3.83;;;17.40;46.10;;;;;;5045354;28;20183;-68
2023/05/25 00:54:51;;;;;;;9.53;3.53;;;17.30;45.50;;;;;;5044871;28;20258;-69
2023/05/25 00:57:22;;;;;;;9.13;3.30;;;17.50;46.30;;;;;;5048653;28;20188;-70
2023/05/25 00:59:53;;;;;;;9.93;3.27;;;17.70;46.40;;;;;;5047035;28;20233;-70
2023/05/25 01:02:23;;;;;;;9.23;3.63;;;17.80;45.60;;;;;;5039406;28;20188;-69
2023/05/25 01:05:01;;;;;;;8.00;3.70;;;17.80;45.50;;;;;;5049311;28;20634;-69
2023/05/25 01:07:31;;;;;;;8.73;4.10;;;18.00;45.80;;;;;;5048686;28;20187;-69
2023/05/25 01:10:01;;;;;;;10.10;4.00;;;18.10;46.10;;;;;;5048079;28;20606;-68
2023/05/25 01:12:36;;;;;;;9.30;3.40;;;18.20;45.50;;;;;;5049323;28;20680;-70
2023/05/25 01:15:05;;;;;;;12.20;4.30;;;18.30;45.50;;;;;;5047128;28;20219;-68
2023/05/25 01:17:36;;;;;;;12.40;4.03;;;18.40;46.10;;;;;;5048302;28;20184;-68
2023/05/25 01:20:08;;;;;;;14.07;4.00;;;18.50;46.20;;;;;;5043034;28;20751;-69
2023/05/25 01:22:53;;;;;;;8.83;3.60;;;18.60;45.30;;;;;;5047868;28;20203;-69
2023/05/25 01:25:41;;;;;;;13.97;3.80;;;18.50;45.30;;;;;;5050508;28;20663;-69
2023/05/25 01:28:16;;;;;;;14.03;3.63;;;18.70;45.50;;;;;;5050812;28;20226;-69
2023/05/25 01:30:47;;;;;;;14.57;4.33;;;18.80;45.50;;;;;;5050765;28;20706;-69
2023/05/25 01:33:19;;;;;;;9.93;3.63;;;18.90;44.10;;;;;;5051032;28;20199;-70
2023/05/25 01:35:48;;;;;;;10.00;3.80;;;19.00;43.90;;;;;;5054797;28;20195;-68
2023/05/25 01:38:16;;;;;;;13.13;3.40;;;19.30;44.20;;;;;;5046852;28;20219;-69
2023/05/25 01:40:44;;;;;;;14.80;4.10;;;19.60;42.70;;;;;;5046937;28;20176;-68
2023/05/25 01:43:12;;;;;;;12.17;4.43;;;19.80;42.50;;;;;;5054538;28;20184;-69
2023/05/25 01:45:39;;;;;;;8.83;3.40;;;20.00;42.70;;;;;;5047428;28;20719;-67
2023/05/25 01:48:39;;;;;;;11.20;3.63;;;20.20;42.00;;;;;;5054997;28;20179;-69
2023/05/25 01:51:39;;;;;;;9.90;3.50;;;20.50;40.70;;;;;;5027674;28;20238;-67
2023/05/25 01:54:20;;;;;;;11.53;4.10;;;20.30;41.20;;;;;;5043091;28;20259;-67
2023/05/25 01:56:50;;;;;;;14.40;4.23;;;20.40;41.30;;;;;;5048429;28;20191;-68
2023/05/25 01:59:21;;;;;;;13.23;4.53;;;20.30;42.00;;;;;;5051422;28;20270;-68
2023/05/25 02:01:50;;;;;;;9.13;3.83;;;20.40;41.70;;;;;;5050380;28;20176;-67
2023/05/25 02:04:18;;;;;;;8.00;3.30;;;20.60;42.30;;;;;;5043446;28;20184;-68
2023/05/25 02:06:48;;;;;;;8.27;3.50;;;20.50;41.50;;;;;;5050802;28;20176;-67
2023/05/25 02:09:16;;;;;;;10.97;3.87;;;20.40;42.80;;;;;;5053645;28;20194;-68
2023/05/25 02:11:43;;;;;;;10.03;3.73;;;20.30;42.50;;;;;;5052149;28;20192;-67
2023/05/25 02:14:10;;;;;;;10.90;3.63;;;20.20;43.30;;;;;;5054138;28;20203;-68
2023/05/25 02:16:38;;;;;;;8.93;3.87;;;20.00;43.00;;;;;;5053425;28;20607;-68
2023/05/25 02:19:05;;;;;;;13.53;4.03;;;19.80;43.00;;;;;;5050273;28;20234;-68
2023/05/25 02:21:35;;;;;;;9.87;3.27;;;19.80;43.40;;;;;;5046297;28;20180;-67
2023/05/25 02:24:02;;;;;;;13.53;3.87;;;19.80;43.30;;;;;;5053724;28;20198;-67
2023/05/25 02:26:29;;;;;;;12.97;4.77;;;19.80;43.50;;;;;;5052546;28;20180;-68
2023/05/25 02:28:57;;;;;;;14.87;4.20;;;19.90;43.90;;;;;;5054157;28;20270;-67
2023/05/25 02:31:24;;;;;;;10.90;3.43;;;19.90;44.30;;;;;;5054412;28;20318;-68
2023/05/25 02:33:51;;;;;;;9.70;4.13;;;20.00;44.30;;;;;;5054086;28;20211;-68
2023/05/25 02:36:19;;;;;;;10.70;3.50;;;20.10;43.80;;;;;;5054234;28;20180;-67
2023/05/25 02:38:48;;;;;;;11.13;3.90;;;20.10;43.80;;;;;;5054095;28;20650;-68
2023/05/25 02:41:23;;;;;;;10.20;3.17;;;20.10;44.20;;;;;;5049815;28;20194;-67
2023/05/25 02:43:50;;;;;;;10.53;3.80;;;20.00;43.50;;;;;;5044431;28;20574;-67
2023/05/25 02:46:17;;;;;;;8.23;3.20;;;20.20;43.80;;;;;;5051024;28;20180;-68
2023/05/25 02:48:45;;;;;;;12.30;3.80;;;20.20;43.80;;;;;;5052086;28;20199;-70
2023/05/25 02:51:12;;;;;;;13.70;4.13;;;20.10;44.40;;;;;;5046209;28;20184;-67
2023/05/25 02:53:40;;;;;;;8.87;3.73;;;20.00;44.70;;;;;;5049028;28;20212;-68
2023/05/25 02:56:09;;;;;;;10.97;3.50;;;19.90;46.10;;;;;;5047799;28;20188;-67
2023/05/25 02:58:37;;;;;;;9.00;3.53;;;19.90;46.20;;;;;;5041744;28;20189;-68
2023/05/25 03:01:09;;;;;;;12.47;4.27;;;19.80;45.10;;;;;;5042405;28;20258;-68
2023/05/25 03:03:39;;;;;;;11.07;3.63;;;19.70;45.80;;;;;;5041247;28;20667;-68
2023/05/25 03:06:06;;;;;;;10.57;3.90;;;19.60;45.60;;;;;;5050606;28;20176;-67
2023/05/25 03:08:34;;;;;;;8.13;3.87;;;19.60;46.60;;;;;;5051410;28;20171;-68
2023/05/25 03:11:01;;;;;;;11.50;3.63;;;19.60;47.00;;;;;;5051411;28;20303;-67
2023/05/25 03:13:28;;;;;;;10.30;3.00;;;19.50;47.50;;;;;;5052223;28;20199;-67
2023/05/25 03:15:55;;;;;;;12.67;4.47;;;19.60;47.00;;;;;;5050260;28;20531;-68
2023/05/25 03:18:23;;;;;;;9.67;4.10;;;19.50;47.60;;;;;;5048053;28;20238;-68
2023/05/25 03:20:50;;;;;;;11.93;4.67;;;19.40;48.30;;;;;;5050039;28;20262;-69
2023/05/25 03:23:18;;;;;;;17.43;3.77;;;19.40;49.20;;;;;;5035875;28;20184;-67
2023/05/25 03:25:45;;;;;;;11.00;4.20;;;19.30;49.30;;;;;;5052493;28;20208;-68
2023/05/25 03:28:13;;;;;;;10.00;4.00;;;19.30;50.00;;;;;;5052813;28;20258;-68
2023/05/25 03:30:41;;;;;;;10.57;4.87;;;19.30;51.10;;;;;;5048107;28;20664;-69
2023/05/25 03:33:08;;;;;;;13.90;4.67;;;19.30;51.20;;;;;;5047758;28;20184;-68
2023/05/25 03:35:35;;;;;;;13.67;4.33;;;19.20;50.40;;;;;;5031603;28;20194;-68
2023/05/25 03:38:03;;;;;;;13.47;4.40;;;19.20;50.90;;;;;;5047882;28;20183;-69
2023/05/25 03:40:30;;;;;;;15.60;4.50;;;19.20;49.70;;;;;;5051943;28;20186;-69
2023/05/25 03:42:57;;;;;;;11.37;4.77;;;19.20;49.80;;;;;;5047648;28;20194;-67
2023/05/25 03:45:24;;;;;;;16.13;5.53;;;19.30;50.60;;;;;;5051628;28;20287;-68
2023/05/25 03:47:52;;;;;;;18.53;5.47;;;19.30;50.50;;;;;;5051305;28;20183;-68
2023/05/25 03:50:19;;;;;;;15.70;4.40;;;19.30;50.20;;;;;;5045851;28;20180;-68
2023/05/25 03:52:46;;;;;;;18.90;4.50;;;19.30;50.50;;;;;;5047704;28;20180;-67
2023/05/25 03:55:14;;;;;;;15.13;4.90;;;19.30;50.10;;;;;;5047872;28;20746;-67
2023/05/25 03:57:42;;;;;;;12.03;4.37;;;19.30;49.90;;;;;;5047998;28;20681;-67
2023/05/25 04:00:10;;;;;;;12.57;4.03;;;19.30;48.70;;;;;;5049296;28;20184;-69
2023/05/25 04:02:37;;;;;;;11.00;4.20;;;19.30;49.00;;;;;;5048510;28;20536;-67
2023/05/25 04:05:05;;;;;;;10.20;3.63;;;19.30;47.80;;;;;;5049751;28;20203;-70
2023/05/25 04:07:33;;;;;;;15.50;3.67;;;19.40;47.10;;;;;;5046534;28;20190;-69
2023/05/25 04:10:00;;;;;;;12.00;3.03;;;19.40;46.60;;;;;;5048913;28;20709;-69
2023/05/25 04:12:28;;;;;;;13.13;3.10;;;19.50;45.30;;;;;;5035203;28;20210;-69
2023/05/25 04:14:55;;;;;;;7.60;2.93;;;19.40;44.80;;;;;;5049593;28;20252;-69
2023/05/25 04:17:23;;;;;;;9.67;2.90;;;19.40;44.50;;;;;;5046984;28;20183;-68
2023/05/25 04:19:54;;;;;;;9.53;3.13;;;19.30;45.80;;;;;;5049072;28;20227;-71
2023/05/25 04:22:21;;;;;;;7.10;2.80;;;19.30;44.30;;;;;;5045039;28;20519;-68
2023/05/25 04:24:49;;;;;;;11.70;3.33;;;19.20;46.10;;;;;;5050895;28;20199;-70
2023/05/25 04:27:19;;;;;;;9.57;3.20;;;19.20;45.10;;;;;;5046269;28;20601;-70
2023/05/25 04:29:49;;;;;;;14.43;3.00;;;19.20;45.70;;;;;;5048714;28;20187;-69
2023/05/25 04:32:16;;;;;;;11.37;3.30;;;19.20;45.30;;;;;;5044034;28;20184;-70
2023/05/25 04:34:45;;;;;;;12.03;2.90;;;19.20;44.30;;;;;;5047035;28;20294;-70
2023/05/25 04:37:13;;;;;;;7.70;2.97;;;19.20;45.00;;;;;;5051034;28;20571;-72
2023/05/25 04:39:40;;;;;;;9.67;3.00;;;19.30;45.30;;;;;;5049299;28;20184;-72
2023/05/25 04:42:07;;;;;;;7.07;2.67;;;19.30;44.80;;;;;;5032652;28;20193;-70
2023/05/25 04:44:36;;;;;;;9.00;3.10;;;19.30;43.70;;;;;;5048226;28;20270;-69
2023/05/25 04:47:04;;;;;;;10.67;3.83;;;19.40;43.80;;;;;;5046707;28;20259;-70
2023/05/25 04:49:32;;;;;;;11.07;3.63;;;19.50;44.40;;;;;;5043078;28;20192;-69
2023/05/25 04:52:00;;;;;;;11.60;3.47;;;19.50;42.70;;;;;;5050645;28;20885;-70
2023/05/25 04:54:27;;;;;;;8.97;2.73;;;19.60;41.60;;;;;;5049924;28;20298;-72
2023/05/25 04:56:54;;;;;;;6.77;2.87;;;19.70;40.80;;;;;;5050503;28;20622;-70
2023/05/25 04:59:21;;;;;;;8.83;2.90;;;19.70;41.50;;;;;;5050358;28;20290;-71
2023/05/25 05:01:49;;;;;;;7.50;2.83;;;19.70;41.50;;;;;;5047465;28;20193;-70
2023/05/25 05:04:17;;;;;;;9.80;3.43;;;19.70;41.50;;;;;;5046045;28;20188;-72
2023/05/25 05:06:45;;;;;;;9.37;3.07;;;19.60;42.30;;;;;;5034699;28;20190;-69
2023/05/25 05:09:12;;;;;;;14.50;2.87;;;19.60;42.00;;;;;;5051858;28;20180;-71
2023/05/25 05:11:39;;;;;;;10.80;3.10;;;19.50;42.20;;;;;;5054106;28;20183;-72
2023/05/25 05:14:07;;;;;;;10.27;3.17;;;19.50;42.80;;;;;;5053181;28;20226;-71
2023/05/25 05:16:34;;;;;;;16.10;3.40;;;19.40;42.90;;;;;;5045639;28;20171;-72
2023/05/25 05:19:02;;;;;;;6.77;3.67;;;19.30;43.20;;;;;;5051088;28;20227;-73
2023/05/25 05:21:29;;;;;;;17.90;2.93;;;19.30;43.40;;;;;;5045319;28;20233;-72
2023/05/25 05:23:57;;;;;;;9.80;3.37;;;19.20;43.70;;;;;;5053162;28;20176;-72
2023/05/25 05:26:24;;;;;;;8.13;3.23;;;19.20;43.60;;;;;;5052247;28;20188;-69
2023/05/25 05:28:51;;;;;;;10.93;3.30;;;19.20;43.80;;;;;;5053922;28;20172;-73
2023/05/25 05:31:19;;;;;;;12.77;3.23;;;19.20;44.70;;;;;;5055140;28;20663;-72
2023/05/25 05:33:46;;;;;;;15.90;3.60;;;19.10;43.70;;;;;;5052592;28;20567;-70
2023/05/25 05:36:13;;;;;;;11.67;3.60;;;19.10;44.00;;;;;;5053353;28;20180;-70
2023/05/25 05:38:41;;;;;;;12.93;3.70;;;19.10;45.00;;;;;;5053872;28;20180;-72
2023/05/25 05:41:12;;;;;;;14.83;3.63;;;19.00;44.90;;;;;;5047849;28;20649;-73
2023/05/25 05:43:42;;;;;;;18.67;3.60;;;19.00;44.60;;;;;;5050939;28;20191;-72
2023/05/25 05:46:12;;;;;;;15.03;4.07;;;18.90;45.40;;;;;;5050582;28;20229;-73
2023/05/25 05:48:40;;;;;;;19.60;4.53;;;18.90;45.10;;;;;;5047993;28;20192;-70
2023/05/25 05:51:07;;;;;;;13.67;4.60;;;18.80;45.50;;;;;;5051156;28;20176;-70
2023/05/25 05:53:35;;;;;;;17.60;3.97;;;18.80;46.80;;;;;;5051036;28;20680;-70
2023/05/25 05:56:06;;;;;;;13.03;4.00;;;18.80;46.90;;;;;;5051361;28;20242;-71
2023/05/25 05:58:33;;;;;;;12.67;3.63;;;18.70;46.80;;;;;;5052027;28;20179;-71
2023/05/25 06:01:02;;;;;;;14.20;4.10;;;18.50;46.90;;;;;;5054171;28;20281;-72
2023/05/25 06:03:29;;;;;;;11.90;3.67;;;18.50;47.70;;;;;;5047939;28;20180;-72
2023/05/25 06:05:56;;;;;;;10.43;3.30;;;18.40;47.70;;;;;;5049597;28;20176;-72
2023/05/25 06:08:24;;;;;;;17.33;3.77;;;18.30;47.00;;;;;;5053117;28;20183;-71
2023/05/25 06:10:52;;;;;;;21.67;3.80;;;18.30;47.30;;;;;;5048458;28;20229;-70
2023/05/25 06:13:20;;;;;;;19.57;4.60;;;18.20;47.30;;;;;;5052786;28;20192;-72
2023/05/25 06:15:47;;;;;;;17.73;4.57;;;18.20;47.20;;;;;;5053498;28;20654;-73
2023/05/25 06:18:15;;;;;;;16.23;3.83;;;18.10;48.10;;;;;;5052621;28;20279;-74
2023/05/25 06:20:42;;;;;;;19.80;3.97;;;18.00;48.80;;;;;;5051055;28;20223;-74
2023/05/25 06:23:11;;;;;;;13.47;4.07;;;18.00;49.10;;;;;;5052479;28;20188;-73
2023/05/25 06:25:38;;;;;;;16.23;3.67;;;17.90;49.90;;;;;;5052719;28;20634;-73
2023/05/25 06:28:06;;;;;;;23.27;4.67;;;17.80;50.60;;;;;;5052769;28;20184;-73
2023/05/25 06:30:33;;;;;;;20.43;5.10;;;17.70;51.40;;;;;;5046181;28;20192;-73
2023/05/25 06:33:01;;;;;;;10.63;4.20;;;17.70;51.60;;;;;;5052091;28;20203;-72
2023/05/25 06:35:28;;;;;;;15.33;4.23;;;17.60;51.80;;;;;;5062730;28;20222;-70
2023/05/25 06:37:56;;;;;;;11.23;4.07;;;17.60;51.60;;;;;;5048029;28;20212;-71
2023/05/25 06:40:23;;;;;;;12.97;4.00;;;17.60;51.30;;;;;;5050110;28;20196;-70
2023/05/25 06:42:51;;;;;;;13.13;3.93;;;17.50;51.00;;;;;;5052546;28;20196;-70
2023/05/25 06:45:18;;;;;;;14.73;3.93;;;17.50;50.90;;;;;;5051372;28;20668;-68
2023/05/25 06:47:45;;;;;;;20.53;4.77;;;17.50;50.90;;;;;;5049703;28;20276;-72
2023/05/25 06:50:13;;;;;;;15.33;4.07;;;17.50;51.10;;;;;;5052224;28;20196;-69
2023/05/25 06:52:40;;;;;;;12.87;3.87;;;17.40;50.60;;;;;;5050591;28;20184;-72
2023/05/25 06:55:08;;;;;;;9.10;3.03;;;17.50;49.50;;;;;;5052593;28;20607;-71
2023/05/25 06:57:35;;;;;;;12.07;3.80;;;17.50;49.30;;;;;;5051780;28;20511;-70
2023/05/25 07:00:10;;;;;;;9.70;3.23;;;17.50;48.90;;;;;;5048500;28;20180;-70
2023/05/25 07:02:37;;;;;;;11.03;3.40;;;17.50;49.10;;;;;;5050329;28;20267;-69
2023/05/25 07:05:06;;;;;;;13.83;4.00;;;17.40;49.80;;;;;;5052629;28;20226;-73
2023/05/25 07:07:34;;;;;;;16.77;4.37;;;17.50;48.90;;;;;;5051057;28;20188;-73
2023/05/25 07:10:04;;;;;;;14.50;3.50;;;17.40;49.60;;;;;;5037187;28;20180;-71
2023/05/25 07:12:32;;;;;;;11.27;4.53;;;17.30;50.60;;;;;;5049109;28;20266;-72
2023/05/25 07:14:59;;;;;;;10.13;3.57;;;17.30;50.80;;;;;;5049836;28;20211;-72
2023/05/25 07:17:30;;;;;;;17.87;4.47;;;17.30;50.70;;;;;;5047739;28;20187;-69
2023/05/25 07:19:57;;;;;;;13.63;4.57;;;17.30;51.40;;;;;;5051396;28;20311;-70
2023/05/25 07:22:25;;;;;;;10.60;3.53;;;17.30;51.10;;;;;;5051268;28;20641;-73
2023/05/25 07:24:52;;;;;;;12.77;4.63;;;17.30;49.40;;;;;;5051476;28;20268;-72
2023/05/25 07:27:20;;;;;;;12.73;3.90;;;17.30;49.30;;;;;;5046241;28;20195;-70
2023/05/25 07:29:47;;;;;;;12.70;4.43;;;17.30;50.20;;;;;;5047730;28;20293;-71
2023/05/25 07:32:14;;;;;;;11.07;3.60;;;17.20;50.10;;;;;;5048155;28;20234;-71
2023/05/25 07:34:42;;;;;;;11.30;3.70;;;17.20;50.40;;;;;;5052157;28;20223;-72
2023/05/25 07:37:09;;;;;;;11.40;3.10;;;17.20;50.30;;;;;;5052550;28;20172;-70
2023/05/25 07:39:36;;;;;;;12.20;3.50;;;17.20;47.90;;;;;;5052694;28;20278;-71
2023/05/25 07:42:04;;;;;;;16.70;4.10;;;17.30;47.70;;;;;;5044430;28;20172;-73
2023/05/25 07:44:31;;;;;;;12.50;3.70;;;17.30;47.70;;;;;;5034685;28;20586;-71
2023/05/25 07:46:59;;;;;;;9.77;3.47;;;17.40;47.00;;;;;;5051830;28;20255;-71
2023/05/25 07:49:26;;;;;;;10.27;3.63;;;17.30;47.00;;;;;;5049961;28;20590;-70
2023/05/25 07:51:53;;;;;;;7.73;3.10;;;17.30;46.90;;;;;;5051184;28;20172;-69
2023/05/25 07:54:21;;;;;;;11.40;3.50;;;17.30;45.90;;;;;;5051345;28;21585;-69
2023/05/25 07:56:48;;;;;;;10.00;3.27;;;17.30;45.30;;;;;;5051160;28;20184;-70
2023/05/25 07:59:15;;;;;;;13.27;3.73;;;17.40;45.10;;;;;;5050411;28;20222;-69
2023/05/25 08:01:43;;;;;;;11.73;4.10;;;17.40;45.30;;;;;;5050749;28;20178;-69
2023/05/25 08:04:10;;;;;;;8.67;3.43;;;17.30;45.30;;;;;;5051503;28;20191;-69
2023/05/25 08:06:37;;;;;;;10.57;3.23;;;17.30;45.10;;;;;;5051138;28;20262;-71
2023/05/25 08:09:06;;;;;;;7.93;3.13;;;17.20;45.80;;;;;;5048568;28;20180;-70
2023/05/25 08:11:34;;;;;;;9.10;3.53;;;17.10;45.40;;;;;;5049023;28;20203;-70
2023/05/25 08:14:01;;;;;;;7.63;3.23;;;17.10;45.60;;;;;;5051865;28;20203;-69
2023/05/25 08:16:28;;;;;;;12.50;3.93;;;17.10;45.70;;;;;;5040709;28;20176;-70
2023/05/25 08:18:56;;;;;;;12.17;3.80;;;17.00;46.40;;;;;;5051367;28;20646;-70
2023/05/25 08:21:23;;;;;;;11.07;3.87;;;17.00;48.20;;;;;;5051123;28;20187;-70
2023/05/25 08:23:51;;;;;;;11.03;3.63;;;17.00;49.30;;;;;;5051054;28;20822;-71
2023/05/25 08:26:18;;;;;;;9.87;3.73;;;16.80;49.90;;;;;;5050724;28;20214;-72
2023/05/25 08:28:45;;;;;;;9.93;4.17;;;16.80;49.90;;;;;;5033243;28;20579;-70
2023/05/25 08:31:13;;;;;;;12.80;4.27;;;16.70;49.50;;;;;;5052548;28;20181;-72
2023/05/25 08:33:40;;;;;;;11.60;4.47;;;16.70;49.60;;;;;;5051493;28;20250;-69
2023/05/25 08:36:08;;;;;;;7.87;4.00;;;16.70;48.30;;;;;;5047766;28;20203;-69
2023/05/25 08:38:35;;;;;;;9.23;4.13;;;16.70;47.60;;;;;;5037349;28;20558;-69
2023/05/25 08:41:07;;;;;;;16.67;4.20;;;16.70;47.60;;;;;;5046929;28;20195;-69
2023/05/25 08:43:35;;;;;;;8.77;4.03;;;16.80;47.40;;;;;;5051137;28;20211;-69
2023/05/25 08:46:07;;;;;;;10.40;4.53;;;16.70;50.10;;;;;;5042556;28;20271;-70
2023/05/25 08:48:35;;;;;;;11.50;4.20;;;16.60;50.40;;;;;;5049299;28;20178;-70
2023/05/25 08:51:10;;;;;;;10.10;4.23;;;16.70;47.70;;;;;;5034368;28;20214;-69
2023/05/25 08:53:40;;;;;;;11.47;4.27;;;16.70;48.20;;;;;;5037121;28;20313;-69
2023/05/25 08:56:22;;;;;;;9.33;3.50;;;16.80;47.00;;;;;;5048602;28;20217;-71
2023/05/25 08:59:08;;;;;;;9.17;4.03;;;16.80;46.50;;;;;;5051281;28;20297;-69
2023/05/25 09:01:43;;;;;;;8.33;3.33;;;16.90;45.90;;;;;;5047112;28;20664;-70
2023/05/25 09:04:18;;;;;;;6.93;3.50;;;16.90;44.70;;;;;;5051671;28;20213;-70
2023/05/25 09:06:47;;;;;;;6.87;3.70;;;16.90;44.40;;;;;;5041405;28;20179;-69
2023/05/25 09:09:14;;;;;;;12.53;4.40;;;16.90;45.10;;;;;;5033894;28;20176;-70
2023/05/25 09:11:43;;;;;;;10.30;4.03;;;16.80;45.40;;;;;;5041372;28;20635;-70
2023/05/25 09:14:11;;;;;;;12.13;4.53;;;16.70;45.90;;;;;;5046984;28;20657;-69
2023/05/25 09:16:39;;;;;;;9.40;4.07;;;16.70;46.90;;;;;;5045449;28;20196;-70
2023/05/25 09:19:06;;;;;;;9.00;4.07;;;16.60;47.20;;;;;;5048382;28;20218;-69
2023/05/25 09:21:35;;;;;;;7.87;3.93;;;16.70;45.80;;;;;;5049255;28;20226;-69
2023/05/25 09:24:03;;;;;;;8.37;3.40;;;16.70;45.20;;;;;;5045346;28;20193;-70
2023/05/25 09:26:30;;;;;;;5.50;3.37;;;16.80;45.40;;;;;;5042972;28;20194;-71
2023/05/25 09:28:57;;;;;;;8.30;3.37;;;16.70;45.30;;;;;;5041211;28;20175;-71
2023/05/25 09:31:25;;;;;;;9.37;3.67;;;16.70;45.30;;;;;;5051547;28;20606;-71
2023/05/25 09:33:58;;;;;;;15.27;3.43;;;16.80;45.00;;;;;;5034753;28;20265;-69
2023/05/25 09:36:26;;;;;;;12.00;3.90;;;16.80;45.00;;;;;;5050054;28;20269;-69
2023/05/25 09:38:55;;;;;;;11.90;3.80;;;16.80;45.10;;;;;;5045107;28;20172;-72
2023/05/25 09:41:26;;;;;;;8.90;3.60;;;16.80;45.40;;;;;;5051095;28;20184;-70
2023/05/25 09:43:54;;;;;;;12.43;3.90;;;16.70;46.90;;;;;;5049591;28;20206;-70
2023/05/25 09:46:21;;;;;;;6.00;3.40;;;16.60;46.10;;;;;;5042841;28;20185;-69
2023/05/25 09:48:52;;;;;;;9.37;3.50;;;16.50;46.90;;;;;;5045928;28;20214;-73
2023/05/25 09:51:20;;;;;;;8.03;3.83;;;16.40;47.20;;;;;;5044985;28;20187;-72
2023/05/25 09:53:48;;;;;;;7.10;3.10;;;16.30;47.20;;;;;;5050849;28;20200;-73
2023/05/25 09:56:16;;;;;;;5.20;3.30;;;16.30;48.20;;;;;;5051998;28;20211;-73
2023/05/25 09:58:44;;;;;;;5.37;3.20;;;16.40;46.30;;;;;;5050424;28;20191;-74
2023/05/25 10:01:11;;;;;;;9.53;3.90;;;16.40;46.50;;;;;;5053206;28;20199;-73
2023/05/25 10:03:49;;;;;;;7.47;3.67;;;16.40;46.70;;;;;;5054135;28;20644;-73
2023/05/25 10:06:17;;;;;;;8.83;4.30;;;16.40;47.30;;;;;;5037617;28;20206;-74
2023/05/25 10:08:45;;;;;;;10.13;4.13;;;16.30;47.80;;;;;;5050482;28;20176;-73
2023/05/25 10:11:15;;;;;;;6.30;3.93;;;16.30;47.90;;;;;;5041429;28;20673;-73
2023/05/25 10:13:46;;;;;;;6.70;3.67;;;16.30;46.80;;;;;;5050735;28;20200;-71
2023/05/25 10:16:19;;;;;;;9.20;3.93;;;16.30;46.60;;;;;;5053085;28;20683;-69
2023/05/25 10:18:56;;;;;;;7.57;3.60;;;16.40;45.70;;;;;;5049987;28;20188;-72
2023/05/25 10:21:26;;;;;;;10.20;3.67;;;16.50;45.80;;;;;;5052621;28;20199;-71
2023/05/25 10:24:01;;;;;;;9.67;3.70;;;16.60;45.10;;;;;;5050841;28;20496;-72
2023/05/25 10:26:35;;;;;;;6.60;3.20;;;16.60;44.70;;;;;;5050037;28;20221;-72
2023/05/25 10:29:04;;;;;;;5.20;3.10;;;16.70;44.00;;;;;;5051994;28;20186;-71
2023/05/25 10:31:36;;;;;;;7.43;2.83;;;16.80;43.10;;;;;;5054315;28;20614;-71
2023/05/25 10:34:04;;;;;;;6.43;3.10;;;16.90;43.10;;;;;;5052676;28;20215;-70
2023/05/25 10:36:33;;;;;;;7.27;2.90;;;17.00;42.20;;;;;;5037176;28;20198;-69
2023/05/25 10:42:22;;;;;;;7.93;3.13;;;17.20;41.80;;;;;;5051641;28;20194;-71
2023/05/25 10:44:50;;;;;;;6.17;2.90;;;17.20;41.70;;;;;;5038049;28;20588;-69
2023/05/25 10:47:18;;;;;;;7.17;3.27;;;17.30;40.70;;;;;;5035550;28;20180;-69
2023/05/25 10:49:52;;;;;;;6.53;3.27;;;17.40;39.90;;;;;;5054276;28;20639;-71
2023/05/25 10:52:19;;;;;;;8.73;3.30;;;17.40;40.30;;;;;;5052659;28;20256;-70
2023/05/25 10:54:54;;;;;;;8.57;2.70;;;17.50;39.60;;;;;;5053031;28;20699;-71
2023/05/25 10:57:23;;;;;;;6.03;2.30;;;17.50;39.00;;;;;;5052974;28;20183;-70
2023/05/25 11:00:01;;;;;;;3.43;2.10;;;17.50;38.70;;;;;;5053485;28;20191;-69
2023/05/25 11:02:30;;;;;;;6.33;2.80;;;17.70;38.60;;;;;;5044206;28;20172;-71
2023/05/25 11:05:25;;;;;;;6.23;2.50;;;17.80;38.10;;;;;;5053439;28;20195;-70
2023/05/25 11:08:06;;;;;;;6.80;2.40;;;17.80;37.80;;;;;;5047528;28;20647;-70
2023/05/25 11:10:49;;;;;;;4.80;2.00;;;18.00;36.80;;;;;;5051036;28;20176;-71
2023/05/25 11:13:31;;;;;;;7.87;2.53;;;18.20;36.20;;;;;;5044714;28;20549;-71
2023/05/25 11:16:23;;;;;;;5.30;1.87;;;18.30;36.10;;;;;;5040929;28;20226;-71
2023/05/25 11:18:51;;;;;;;4.70;2.07;;;18.30;35.90;;;;;;5045011;28;20527;-69
2023/05/25 11:21:26;;;;;;;7.27;2.43;;;18.30;35.60;;;;;;5052405;28;20202;-73
2023/05/25 11:23:58;;;;;;;5.93;2.00;;;18.40;35.40;;;;;;5040916;28;20171;-68
2023/05/25 11:26:32;;;;;;;4.67;2.10;;;18.50;35.10;;;;;;5052629;28;20182;-71
2023/05/25 11:29:00;;;;;;;5.40;2.37;;;18.50;35.10;;;;;;5048905;28;20191;-70
2023/05/25 11:31:29;;;;;;;5.47;2.50;;;18.60;35.00;;;;;;5053157;28;20169;-70
2023/05/25 11:34:03;;;;;;;3.43;2.00;;;18.60;34.80;;;;;;5042997;28;20216;-70
2023/05/25 11:36:33;;;;;;;5.30;2.20;;;18.70;35.20;;;;;;5041623;28;20727;-69
2023/05/25 11:39:06;;;;;;;4.53;2.10;;;18.60;35.20;;;;;;5048536;28;20191;-68
2023/05/25 11:41:35;;;;;;;6.87;2.20;;;18.60;35.30;;;;;;5045174;28;20184;-70
2023/05/25 11:44:06;;;;;;;5.80;2.30;;;18.60;35.20;;;;;;5044454;28;20619;-71
2023/05/25 11:46:33;;;;;;;5.37;1.80;;;18.70;34.90;;;;;;5049300;28;20184;-69
2023/05/25 11:49:01;;;;;;;4.93;2.90;;;18.70;35.10;;;;;;5050890;28;20191;-69
2023/05/25 11:51:30;;;;;;;4.20;2.20;;;18.60;34.90;;;;;;5052308;28;20206;-69
2023/05/25 11:53:57;;;;;;;5.73;2.13;;;18.60;34.90;;;;;;5052313;28;20224;-71
2023/05/25 11:56:25;;;;;;;5.07;2.00;;;18.60;35.00;;;;;;5050409;28;20618;-70
2023/05/25 11:58:53;;;;;;;5.53;1.97;;;18.60;35.20;;;;;;5045840;28;20656;-72
2023/05/25 12:01:22;;;;;;;4.17;1.80;;;18.50;35.60;;;;;;5051473;28;20194;-68
2023/05/25 12:03:56;;;;;;;11.40;2.60;;;18.40;35.60;;;;;;5050643;28;20811;-70
2023/05/25 12:06:37;;;;;;;6.23;2.00;;;18.40;35.50;;;;;;5052764;28;20184;-68
2023/05/25 12:09:10;;;;;;;6.60;2.33;;;18.50;35.90;;;;;;5049079;28;20543;-69
2023/05/25 12:11:38;;;;;;;3.90;2.60;;;18.30;35.90;;;;;;5039502;28;20646;-70
2023/05/25 12:14:07;;;;;;;6.43;2.10;;;18.30;35.40;;;;;;5048752;28;20216;-71
2023/05/25 12:16:37;;;;;;;6.63;2.17;;;18.30;35.50;;;;;;5045750;28;20199;-69
2023/05/25 12:19:13;;;;;;;5.77;1.97;;;18.30;35.60;;;;;;5042145;28;20231;-68
2023/05/25 12:21:41;;;;;;;4.30;2.00;;;18.30;36.00;;;;;;5045384;28;20699;-71
2023/05/25 12:24:13;;;;;;;9.47;2.80;;;18.30;36.20;;;;;;5044704;28;20183;-69
2023/05/25 12:27:01;;;;;;;5.77;2.20;;;18.30;36.20;;;;;;5050612;28;20548;-70
2023/05/25 12:29:29;;;;;;;8.43;2.10;;;18.30;36.40;;;;;;5048042;28;20175;-70
2023/05/25 12:32:04;;;;;;;7.73;2.30;;;18.30;36.30;;;;;;5051026;28;20318;-71
2023/05/25 12:34:31;;;;;;;7.43;2.60;;;18.40;36.00;;;;;;5042776;28;20215;-70
2023/05/25 12:37:00;;;;;;;10.37;2.77;;;18.40;35.60;;;;;;5050438;28;20543;-70
2023/05/25 12:39:30;;;;;;;7.03;2.63;;;18.50;35.60;;;;;;5046309;28;20549;-71
2023/05/25 12:42:05;;;;;;;6.13;2.57;;;18.50;35.50;;;;;;5032855;28;20665;-73
2023/05/25 12:44:34;;;;;;;9.90;2.90;;;18.50;35.20;;;;;;5040210;28;20195;-71
2023/05/25 12:47:18;;;;;;;7.87;2.53;;;18.40;35.60;;;;;;5024281;28;20180;-70
2023/05/25 12:49:50;;;;;;;7.07;3.13;;;18.40;35.40;;;;;;5031895;28;20524;-70
2023/05/25 12:52:36;;;;;;;5.23;2.23;;;18.40;35.50;;;;;;5045139;28;20606;-72
2023/05/25 12:55:26;;;;;;;4.67;2.20;;;18.30;35.90;;;;;;5048290;28;20243;-70